sensor_id;sensor_type;location;lat;lon;timestamp;pressure;altitude;pressure_sealevel;temperature;humidity
7748;BME280;3918;42.564;23.164;2023-05-08T04:01:17;-11650.84;;;-142.29;100.00
7748;BME280;3918;42.564;23.164;2023-05-08T04:03:53;-11650.84;;;-142.29;100.00
7748;BME280;3918;42.564;23.164;2023-05-08T04:06:26;-11650.84;;;-142.29;100.00
7748;BME280;3918;42.564;23.164;2023-05-08T04:09:02;-11650.84;;;-142.29;100.00
7748;BME280;3918;42.564;23.164;2023-05-08T04:11:32;-11650.84;;;-142.29;100.00
7748;BME280;3918;42.564;23.164;2023-05-08T04:14:03;-11650.84;;;-142.29;100.00
7748;BME280;3918;42.564;23.164;2023-05-08T04:16:37;-11650.84;;;-142.29;100.00
7748;BME280;3918;42.564;23.164;2023-05-08T04:19:09;-11650.84;;;-142.29;100.00
7748;BME280;3918;42.564;23.164;2023-05-08T04:21:41;-11650.84;;;-142.29;100.00
7748;BME280;3918;42.564;23.164;2023-05-08T04:24:11;-11650.84;;;-142.29;100.00
7748;BME280;3918;42.564;23.164;2023-05-08T04:26:38;-11650.84;;;-142.29;100.00
7748;BME280;3918;42.564;23.164;2023-05-08T04:29:06;-11650.84;;;-142.29;100.00
7748;BME280;3918;42.564;23.164;2023-05-08T04:31:36;-11650.84;;;-142.29;100.00
7748;BME280;3918;42.564;23.164;2023-05-08T04:34:04;-11650.84;;;-142.29;99.32
7748;BME280;3918;42.564;23.164;2023-05-08T04:36:33;-11650.84;;;-142.29;92.62
7748;BME280;3918;42.564;23.164;2023-05-08T04:39:00;-11650.84;;;-142.29;92.57
7748;BME280;3918;42.564;23.164;2023-05-08T04:41:27;-11650.84;;;-142.29;85.63
7748;BME280;3918;42.564;23.164;2023-05-08T04:43:54;-11650.84;;;-142.29;81.42
7748;BME280;3918;42.564;23.164;2023-05-08T04:46:20;-11650.84;;;-142.29;79.64
7748;BME280;3918;42.564;23.164;2023-05-08T04:48:50;-11650.84;;;-142.29;76.07
7748;BME280;3918;42.564;23.164;2023-05-08T04:51:17;-11650.84;;;-142.29;77.90
7748;BME280;3918;42.564;23.164;2023-05-08T04:53:44;-11650.84;;;-142.29;77.43
7748;BME280;3918;42.564;23.164;2023-05-08T04:56:10;-11650.84;;;-142.29;74.40
7748;BME280;3918;42.564;23.164;2023-05-08T04:58:37;-11650.84;;;-142.29;72.16
7748;BME280;3918;42.564;23.164;2023-05-08T05:01:04;-11650.84;;;-142.29;71.56
7748;BME280;3918;42.564;23.164;2023-05-08T05:03:31;-11650.84;;;-142.29;71.69
7748;BME280;3918;42.564;23.164;2023-05-08T05:06:00;-11650.84;;;-142.29;65.57
7748;BME280;3918;42.564;23.164;2023-05-08T05:08:27;-11650.84;;;-142.29;60.72
7748;BME280;3918;42.564;23.164;2023-05-08T05:10:54;-11650.84;;;-142.29;57.55
7748;BME280;3918;42.564;23.164;2023-05-08T05:13:21;-11650.84;;;-142.29;54.37
7748;BME280;3918;42.564;23.164;2023-05-08T05:15:47;-11650.84;;;-142.29;52.59
7748;BME280;3918;42.564;23.164;2023-05-08T05:18:16;-11650.84;;;-142.29;51.02
7748;BME280;3918;42.564;23.164;2023-05-08T05:20:43;-11650.84;;;-142.29;50.61
7748;BME280;3918;42.564;23.164;2023-05-08T05:23:12;-11650.84;;;-142.29;50.74
7748;BME280;3918;42.564;23.164;2023-05-08T05:25:38;-11650.84;;;-142.29;50.31
7748;BME280;3918;42.564;23.164;2023-05-08T05:28:05;-11650.84;;;-142.29;51.15
7748;BME280;3918;42.564;23.164;2023-05-08T05:30:32;-11650.84;;;-142.29;52.23
7748;BME280;3918;42.564;23.164;2023-05-08T05:32:59;-11650.84;;;-142.29;50.97
7748;BME280;3918;42.564;23.164;2023-05-08T05:35:26;-11650.84;;;-142.29;50.37
7748;BME280;3918;42.564;23.164;2023-05-08T05:37:53;-11650.84;;;-142.29;48.63
7748;BME280;3918;42.564;23.164;2023-05-08T05:40:21;-11650.84;;;-142.29;48.91
7748;BME280;3918;42.564;23.164;2023-05-08T05:42:48;-11650.84;;;-142.29;47.55
7748;BME280;3918;42.564;23.164;2023-05-08T05:45:16;-11650.84;;;-142.29;47.44
7748;BME280;3918;42.564;23.164;2023-05-08T05:47:46;-11650.84;;;-142.29;48.31
7748;BME280;3918;42.564;23.164;2023-05-08T05:50:15;-11650.84;;;-142.29;47.87
7748;BME280;3918;42.564;23.164;2023-05-08T05:52:42;-11650.84;;;-142.29;47.56
7748;BME280;3918;42.564;23.164;2023-05-08T05:55:09;-11650.84;;;-142.29;46.71
7748;BME280;3918;42.564;23.164;2023-05-08T05:57:37;-11650.84;;;-142.29;45.98
7748;BME280;3918;42.564;23.164;2023-05-08T06:00:05;-11650.84;;;-142.29;46.90
7748;BME280;3918;42.564;23.164;2023-05-08T06:02:34;-11650.84;;;-142.29;46.19
7748;BME280;3918;42.564;23.164;2023-05-08T06:05:01;-11650.84;;;-142.29;44.50
7748;BME280;3918;42.564;23.164;2023-05-08T06:07:28;-11650.84;;;-142.29;44.46
7748;BME280;3918;42.564;23.164;2023-05-08T06:09:55;-11650.84;;;-142.29;44.27
7748;BME280;3918;42.564;23.164;2023-05-08T06:12:22;-11650.84;;;-142.29;42.75
7748;BME280;3918;42.564;23.164;2023-05-08T06:14:51;-11650.84;;;-142.29;42.75
7748;BME280;3918;42.564;23.164;2023-05-08T06:17:18;-11650.84;;;-142.29;42.18
7748;BME280;3918;42.564;23.164;2023-05-08T06:19:45;-11650.84;;;-142.29;40.94
7748;BME280;3918;42.564;23.164;2023-05-08T06:22:14;-11650.84;;;-142.29;41.84
7748;BME280;3918;42.564;23.164;2023-05-08T06:24:41;-11650.84;;;-142.29;41.73
7748;BME280;3918;42.564;23.164;2023-05-08T06:27:08;-11650.84;;;-142.29;42.10
7748;BME280;3918;42.564;23.164;2023-05-08T06:29:35;-11650.84;;;-142.29;43.48
7748;BME280;3918;42.564;23.164;2023-05-08T06:32:04;-11650.84;;;-142.29;45.03
7748;BME280;3918;42.564;23.164;2023-05-08T06:34:31;-11650.84;;;-142.29;44.70
7748;BME280;3918;42.564;23.164;2023-05-08T06:36:57;-11650.84;;;-142.29;45.08
7748;BME280;3918;42.564;23.164;2023-05-08T06:39:24;-11650.84;;;-142.29;45.03
7748;BME280;3918;42.564;23.164;2023-05-08T06:41:51;-11650.84;;;-142.29;46.71
7748;BME280;3918;42.564;23.164;2023-05-08T06:44:18;-11650.84;;;-142.29;46.92
7748;BME280;3918;42.564;23.164;2023-05-08T06:46:45;-11650.84;;;-142.29;47.56
7748;BME280;3918;42.564;23.164;2023-05-08T06:49:13;-11650.84;;;-142.29;47.47
7748;BME280;3918;42.564;23.164;2023-05-08T06:51:40;-11650.84;;;-142.29;48.46
7748;BME280;3918;42.564;23.164;2023-05-08T06:54:07;-11650.84;;;-142.29;48.37
7748;BME280;3918;42.564;23.164;2023-05-08T06:56:33;-11650.84;;;-142.29;46.65
7748;BME280;3918;42.564;23.164;2023-05-08T06:59:00;-11650.84;;;-142.29;45.08
7748;BME280;3918;42.564;23.164;2023-05-08T07:01:27;-11650.84;;;-142.29;42.97
7748;BME280;3918;42.564;23.164;2023-05-08T07:03:54;-11650.84;;;-142.29;41.43
7748;BME280;3918;42.564;23.164;2023-05-08T07:06:22;-11650.84;;;-142.29;40.64
7748;BME280;3918;42.564;23.164;2023-05-08T07:08:49;-11650.84;;;-142.29;40.09
7748;BME280;3918;42.564;23.164;2023-05-08T07:11:16;-11650.84;;;-142.29;40.12
7748;BME280;3918;42.564;23.164;2023-05-08T07:13:42;-11650.84;;;-142.29;41.59
7748;BME280;3918;42.564;23.164;2023-05-08T07:16:12;-11650.84;;;-142.29;41.85
7748;BME280;3918;42.564;23.164;2023-05-08T07:18:39;-11650.84;;;-142.29;43.67
7748;BME280;3918;42.564;23.164;2023-05-08T07:21:06;-11650.84;;;-142.29;44.11
7748;BME280;3918;42.564;23.164;2023-05-08T07:23:35;-11650.84;;;-142.29;44.18
7748;BME280;3918;42.564;23.164;2023-05-08T07:26:02;-11650.84;;;-142.29;44.97
7748;BME280;3918;42.564;23.164;2023-05-08T07:28:28;-11650.84;;;-142.29;45.22
7748;BME280;3918;42.564;23.164;2023-05-08T07:30:55;-11650.84;;;-142.29;46.28
7748;BME280;3918;42.564;23.164;2023-05-08T07:33:22;-11650.84;;;-142.29;47.30
7748;BME280;3918;42.564;23.164;2023-05-08T07:35:49;-11650.84;;;-142.29;48.02
7748;BME280;3918;42.564;23.164;2023-05-08T07:38:17;-11650.84;;;-142.29;50.22
7748;BME280;3918;42.564;23.164;2023-05-08T07:40:45;-11650.84;;;-142.29;51.15
7748;BME280;3918;42.564;23.164;2023-05-08T07:43:13;-11650.84;;;-142.29;51.95
7748;BME280;3918;42.564;23.164;2023-05-08T07:45:40;-11650.84;;;-142.29;53.02
7748;BME280;3918;42.564;23.164;2023-05-08T07:48:07;-11650.84;;;-142.29;52.78
7748;BME280;3918;42.564;23.164;2023-05-08T07:50:34;-11650.84;;;-142.29;51.61
7748;BME280;3918;42.564;23.164;2023-05-08T07:53:01;-11650.84;;;-142.29;51.20
7748;BME280;3918;42.564;23.164;2023-05-08T07:55:28;-11650.84;;;-142.29;50.50
7748;BME280;3918;42.564;23.164;2023-05-08T07:57:56;-11650.84;;;-142.29;46.00
7748;BME280;3918;42.564;23.164;2023-05-08T08:00:23;-11650.84;;;-142.29;43.32
7748;BME280;3918;42.564;23.164;2023-05-08T08:02:51;-11650.84;;;-142.29;42.26
7748;BME280;3918;42.564;23.164;2023-05-08T08:05:18;-11650.84;;;-142.29;41.88
7748;BME280;3918;42.564;23.164;2023-05-08T08:07:48;-11650.84;;;-142.29;41.21
7748;BME280;3918;42.564;23.164;2023-05-08T08:10:15;-11650.84;;;-142.29;42.08
7748;BME280;3918;42.564;23.164;2023-05-08T08:12:42;-11650.84;;;-142.29;43.16
7748;BME280;3918;42.564;23.164;2023-05-08T08:15:11;-11650.84;;;-142.29;44.81
7748;BME280;3918;42.564;23.164;2023-05-08T08:17:38;-11650.84;;;-142.29;46.53
7748;BME280;3918;42.564;23.164;2023-05-08T08:20:05;-11650.84;;;-142.29;47.19
7748;BME280;3918;42.564;23.164;2023-05-08T08:22:32;-11650.84;;;-142.29;46.68
7748;BME280;3918;42.564;23.164;2023-05-08T08:25:01;-11650.84;;;-142.29;46.35
7748;BME280;3918;42.564;23.164;2023-05-08T08:27:28;-11650.84;;;-142.29;48.43
7748;BME280;3918;42.564;23.164;2023-05-08T08:29:55;-11650.84;;;-142.29;50.91
7748;BME280;3918;42.564;23.164;2023-05-08T08:32:23;-11650.84;;;-142.29;51.28
7748;BME280;3918;42.564;23.164;2023-05-08T08:34:50;-11650.84;;;-142.29;54.52
7748;BME280;3918;42.564;23.164;2023-05-08T08:37:17;-11650.84;;;-142.29;56.68
7748;BME280;3918;42.564;23.164;2023-05-08T08:39:44;-11650.84;;;-142.29;61.72
7748;BME280;3918;42.564;23.164;2023-05-08T08:42:12;-11650.84;;;-142.29;64.32
7748;BME280;3918;42.564;23.164;2023-05-08T08:44:39;-11650.84;;;-142.29;65.39
7748;BME280;3918;42.564;23.164;2023-05-08T08:47:09;-11650.84;;;-142.29;61.87
7748;BME280;3918;42.564;23.164;2023-05-08T08:49:41;-11650.84;;;-142.29;60.71
7748;BME280;3918;42.564;23.164;2023-05-08T08:52:12;-11650.84;;;-142.29;61.29
7748;BME280;3918;42.564;23.164;2023-05-08T08:54:43;-11650.84;;;-142.29;60.48
7748;BME280;3918;42.564;23.164;2023-05-08T08:57:13;-11650.84;;;-142.29;62.59
7748;BME280;3918;42.564;23.164;2023-05-08T08:59:41;-11650.84;;;-142.29;60.76
7748;BME280;3918;42.564;23.164;2023-05-08T09:02:11;-11650.84;;;-142.29;67.53
7748;BME280;3918;42.564;23.164;2023-05-08T09:04:43;-11650.84;;;-142.29;74.59
7748;BME280;3918;42.564;23.164;2023-05-08T09:07:10;-11650.84;;;-142.29;72.26
7748;BME280;3918;42.564;23.164;2023-05-08T09:09:39;-11650.84;;;-142.29;73.11
7748;BME280;3918;42.564;23.164;2023-05-08T09:12:09;-11650.84;;;-142.29;74.33
7748;BME280;3918;42.564;23.164;2023-05-08T09:14:35;-11650.84;;;-142.29;74.17
7748;BME280;3918;42.564;23.164;2023-05-08T09:17:02;-11650.84;;;-142.29;80.42
7748;BME280;3918;42.564;23.164;2023-05-08T09:19:29;-11650.84;;;-142.29;98.08
7748;BME280;3918;42.564;23.164;2023-05-08T09:21:59;-11650.84;;;-142.29;100.00
7748;BME280;3918;42.564;23.164;2023-05-08T09:24:53;-11650.84;;;-142.29;100.00
7748;BME280;3918;42.564;23.164;2023-05-08T09:27:21;-11650.84;;;-142.29;100.00
7748;BME280;3918;42.564;23.164;2023-05-08T09:29:58;-11650.84;;;-142.29;100.00
7748;BME280;3918;42.564;23.164;2023-05-08T09:32:26;-11650.84;;;-142.29;100.00
7748;BME280;3918;42.564;23.164;2023-05-08T09:34:53;-11650.84;;;-142.29;100.00
7748;BME280;3918;42.564;23.164;2023-05-08T09:37:22;-11650.84;;;-142.29;100.00
7748;BME280;3918;42.564;23.164;2023-05-08T09:39:50;-11650.84;;;-142.29;98.44
7748;BME280;3918;42.564;23.164;2023-05-08T09:42:17;-11650.84;;;-142.29;84.38
7748;BME280;3918;42.564;23.164;2023-05-08T09:44:45;-11650.84;;;-142.29;73.85
7748;BME280;3918;42.564;23.164;2023-05-08T09:47:15;-11650.84;;;-142.29;79.34
7748;BME280;3918;42.564;23.164;2023-05-08T09:49:56;-11650.84;;;-142.29;76.30
7748;BME280;3918;42.564;23.164;2023-05-08T09:52:25;-11650.84;;;-142.29;69.81
7748;BME280;3918;42.564;23.164;2023-05-08T09:54:58;-11650.84;;;-142.29;63.26
7748;BME280;3918;42.564;23.164;2023-05-08T09:57:26;-11650.84;;;-142.29;59.40
7748;BME280;3918;42.564;23.164;2023-05-08T09:59:59;-11650.84;;;-142.29;60.38
7748;BME280;3918;42.564;23.164;2023-05-08T10:02:27;-11650.84;;;-142.29;59.52
7748;BME280;3918;42.564;23.164;2023-05-08T10:04:54;-11650.84;;;-142.29;62.28
7748;BME280;3918;42.564;23.164;2023-05-08T10:07:33;-11650.84;;;-142.29;63.75
7748;BME280;3918;42.564;23.164;2023-05-08T10:10:03;-11650.84;;;-142.29;65.73
7748;BME280;3918;42.564;23.164;2023-05-08T10:12:30;-11650.84;;;-142.29;62.45
7748;BME280;3918;42.564;23.164;2023-05-08T10:14:58;-11650.84;;;-142.29;60.47
7748;BME280;3918;42.564;23.164;2023-05-08T10:17:26;-11650.84;;;-142.29;57.68
7748;BME280;3918;42.564;23.164;2023-05-08T10:19:58;-11650.84;;;-142.29;58.79
7748;BME280;3918;42.564;23.164;2023-05-08T10:22:27;-11650.84;;;-142.29;57.06
7748;BME280;3918;42.564;23.164;2023-05-08T10:24:56;-11650.84;;;-142.29;54.09
7748;BME280;3918;42.564;23.164;2023-05-08T10:27:32;-11650.84;;;-142.29;52.44
7748;BME280;3918;42.564;23.164;2023-05-08T10:30:01;-11650.84;;;-142.29;51.13
7748;BME280;3918;42.564;23.164;2023-05-08T10:32:35;-11650.84;;;-142.29;48.73
7748;BME280;3918;42.564;23.164;2023-05-08T10:35:05;-11650.84;;;-142.29;51.23
7748;BME280;3918;42.564;23.164;2023-05-08T10:37:34;-11650.84;;;-142.29;55.07
7748;BME280;3918;42.564;23.164;2023-05-08T10:40:04;-11650.84;;;-142.29;56.47
7748;BME280;3918;42.564;23.164;2023-05-08T10:42:32;-11650.84;;;-142.29;56.27
7748;BME280;3918;42.564;23.164;2023-05-08T10:45:00;-11650.84;;;-142.29;57.09
7748;BME280;3918;42.564;23.164;2023-05-08T10:47:35;-11650.84;;;-142.29;56.39
7748;BME280;3918;42.564;23.164;2023-05-08T10:50:16;-11650.84;;;-142.29;57.87
7748;BME280;3918;42.564;23.164;2023-05-08T10:52:52;-11650.84;;;-142.29;54.59
7748;BME280;3918;42.564;23.164;2023-05-08T10:55:28;-11650.84;;;-142.29;51.39
7748;BME280;3918;42.564;23.164;2023-05-08T10:58:08;-11650.84;;;-142.29;53.29
7748;BME280;3918;42.564;23.164;2023-05-08T11:03:48;-11650.84;;;-142.29;56.19
7748;BME280;3918;42.564;23.164;2023-05-08T11:06:17;-11650.84;;;-142.29;57.10
7748;BME280;3918;42.564;23.164;2023-05-08T11:09:03;-11650.84;;;-142.29;58.97
7748;BME280;3918;42.564;23.164;2023-05-08T11:11:37;-11650.84;;;-142.29;54.92
7748;BME280;3918;42.564;23.164;2023-05-08T11:14:13;-11650.84;;;-142.29;54.19
7748;BME280;3918;42.564;23.164;2023-05-08T11:17:05;-11650.84;;;-142.29;54.31
7748;BME280;3918;42.564;23.164;2023-05-08T11:19:33;-11650.84;;;-142.29;50.19
7748;BME280;3918;42.564;23.164;2023-05-08T11:22:26;-11650.84;;;-142.29;48.80
7748;BME280;3918;42.564;23.164;2023-05-08T11:24:56;-11650.84;;;-142.29;49.47
7748;BME280;3918;42.564;23.164;2023-05-08T11:28:07;-11650.84;;;-142.29;50.44
7748;BME280;3918;42.564;23.164;2023-05-08T11:30:35;-11650.84;;;-142.29;51.36
7748;BME280;3918;42.564;23.164;2023-05-08T11:33:27;-11650.84;;;-142.29;51.27
7748;BME280;3918;42.564;23.164;2023-05-08T11:35:56;-11650.84;;;-142.29;50.27
7748;BME280;3918;42.564;23.164;2023-05-08T11:38:28;-11650.84;;;-142.29;49.31
7748;BME280;3918;42.564;23.164;2023-05-08T11:40:57;-11650.84;;;-142.29;47.81
7748;BME280;3918;42.564;23.164;2023-05-08T11:43:57;-11650.84;;;-142.29;48.03
7748;BME280;3918;42.564;23.164;2023-05-08T11:46:35;-11650.84;;;-142.29;49.48
7748;BME280;3918;42.564;23.164;2023-05-08T11:49:04;-11650.84;;;-142.29;49.46
7748;BME280;3918;42.564;23.164;2023-05-08T11:51:31;-11650.84;;;-142.29;49.77
7748;BME280;3918;42.564;23.164;2023-05-08T11:53:59;-11650.84;;;-142.29;51.25
7748;BME280;3918;42.564;23.164;2023-05-08T11:56:26;-11650.84;;;-142.29;52.55
7748;BME280;3918;42.564;23.164;2023-05-08T11:59:02;-11650.84;;;-142.29;51.76
7748;BME280;3918;42.564;23.164;2023-05-08T12:01:30;-11650.84;;;-142.29;52.71
7748;BME280;3918;42.564;23.164;2023-05-08T12:04:01;-11650.84;;;-142.29;46.49
7748;BME280;3918;42.564;23.164;2023-05-08T12:06:29;-11650.84;;;-142.29;45.67
7748;BME280;3918;42.564;23.164;2023-05-08T12:08:57;-11650.84;;;-142.29;46.34
7748;BME280;3918;42.564;23.164;2023-05-08T12:11:24;-11650.84;;;-142.29;45.72
7748;BME280;3918;42.564;23.164;2023-05-08T12:13:51;-11650.84;;;-142.29;47.00
7748;BME280;3918;42.564;23.164;2023-05-08T12:16:21;-11650.84;;;-142.29;47.99
7748;BME280;3918;42.564;23.164;2023-05-08T12:18:49;-11650.84;;;-142.29;48.09
7748;BME280;3918;42.564;23.164;2023-05-08T12:21:16;-11650.84;;;-142.29;48.85
7748;BME280;3918;42.564;23.164;2023-05-08T12:23:43;-11650.84;;;-142.29;49.39
7748;BME280;3918;42.564;23.164;2023-05-08T12:26:10;-11650.84;;;-142.29;52.32
7748;BME280;3918;42.564;23.164;2023-05-08T12:28:37;-11650.84;;;-142.29;53.92
7748;BME280;3918;42.564;23.164;2023-05-08T12:31:05;-11650.84;;;-142.29;54.13
7748;BME280;3918;42.564;23.164;2023-05-08T12:33:34;-11650.84;;;-142.29;54.59
7748;BME280;3918;42.564;23.164;2023-05-08T12:36:02;-11650.84;;;-142.29;53.50
7748;BME280;3918;42.564;23.164;2023-05-08T12:38:30;-11650.84;;;-142.29;51.20
7748;BME280;3918;42.564;23.164;2023-05-08T12:40:57;-11650.84;;;-142.29;49.96
7748;BME280;3918;42.564;23.164;2023-05-08T12:43:31;-11650.84;;;-142.29;49.72
7748;BME280;3918;42.564;23.164;2023-05-08T12:45:58;-11650.84;;;-142.29;49.93
7748;BME280;3918;42.564;23.164;2023-05-08T12:48:26;-11650.84;;;-142.29;49.14
7748;BME280;3918;42.564;23.164;2023-05-08T12:51:00;-11650.84;;;-142.29;49.16
7748;BME280;3918;42.564;23.164;2023-05-08T12:53:29;-11650.84;;;-142.29;49.93
7748;BME280;3918;42.564;23.164;2023-05-08T12:56:00;-11650.84;;;-142.29;50.14
7748;BME280;3918;42.564;23.164;2023-05-08T12:58:30;-11650.84;;;-142.29;49.61
7748;BME280;3918;42.564;23.164;2023-05-08T13:01:05;-11650.84;;;-142.29;51.39
7748;BME280;3918;42.564;23.164;2023-05-08T13:03:34;-11650.84;;;-142.29;53.00
7748;BME280;3918;42.564;23.164;2023-05-08T13:06:02;-11650.84;;;-142.29;55.51
7748;BME280;3918;42.564;23.164;2023-05-08T13:08:31;-11650.84;;;-142.29;57.91
7748;BME280;3918;42.564;23.164;2023-05-08T13:10:58;-11650.84;;;-142.29;64.54
7748;BME280;3918;42.564;23.164;2023-05-08T13:13:28;-11650.84;;;-142.29;69.13
7748;BME280;3918;42.564;23.164;2023-05-08T13:15:56;-11650.84;;;-142.29;69.45
7748;BME280;3918;42.564;23.164;2023-05-08T13:18:25;-11650.84;;;-142.29;73.02
7748;BME280;3918;42.564;23.164;2023-05-08T13:20:52;-11650.84;;;-142.29;76.02
7748;BME280;3918;42.564;23.164;2023-05-08T13:23:21;-11650.84;;;-142.29;76.06
7748;BME280;3918;42.564;23.164;2023-05-08T13:25:48;-11650.84;;;-142.29;78.55
7748;BME280;3918;42.564;23.164;2023-05-08T13:28:15;-11650.84;;;-142.29;80.24
7748;BME280;3918;42.564;23.164;2023-05-08T13:30:42;-11650.84;;;-142.29;87.82
7748;BME280;3918;42.564;23.164;2023-05-08T13:33:09;-11650.84;;;-142.29;95.76
7748;BME280;3918;42.564;23.164;2023-05-08T13:35:36;-11650.84;;;-142.29;93.07
7748;BME280;3918;42.564;23.164;2023-05-08T13:38:03;-11650.84;;;-142.29;100.00
7748;BME280;3918;42.564;23.164;2023-05-08T13:40:32;-11650.84;;;-142.29;100.00
7748;BME280;3918;42.564;23.164;2023-05-08T13:42:58;-11650.84;;;-142.29;100.00
7748;BME280;3918;42.564;23.164;2023-05-08T13:45:25;-11650.84;;;-142.29;100.00
7748;BME280;3918;42.564;23.164;2023-05-08T13:47:53;-11650.84;;;-142.29;100.00
7748;BME280;3918;42.564;23.164;2023-05-08T13:50:20;-11650.84;;;-142.29;100.00
7748;BME280;3918;42.564;23.164;2023-05-08T13:52:47;-11650.84;;;-142.29;100.00
7748;BME280;3918;42.564;23.164;2023-05-08T13:55:15;-11650.84;;;-142.29;100.00
7748;BME280;3918;42.564;23.164;2023-05-08T13:57:43;-11650.84;;;-142.29;100.00
7748;BME280;3918;42.564;23.164;2023-05-08T14:00:11;-11650.84;;;-142.29;100.00
7748;BME280;3918;42.564;23.164;2023-05-08T14:02:38;-11650.84;;;-142.29;100.00
7748;BME280;3918;42.564;23.164;2023-05-08T14:05:06;-11650.84;;;-142.29;100.00
7748;BME280;3918;42.564;23.164;2023-05-08T14:07:33;-11650.84;;;-142.29;100.00
7748;BME280;3918;42.564;23.164;2023-05-08T14:10:00;-11650.84;;;-142.29;100.00
7748;BME280;3918;42.564;23.164;2023-05-08T14:12:27;-11650.84;;;-142.29;100.00
7748;BME280;3918;42.564;23.164;2023-05-08T14:14:55;-11650.84;;;-142.29;100.00
7748;BME280;3918;42.564;23.164;2023-05-08T14:17:22;-11650.84;;;-142.29;100.00
7748;BME280;3918;42.564;23.164;2023-05-08T14:19:49;-11650.84;;;-142.29;100.00
7748;BME280;3918;42.564;23.164;2023-05-08T14:22:16;-11650.84;;;-142.29;100.00
7748;BME280;3918;42.564;23.164;2023-05-08T14:24:44;-11650.84;;;-142.29;100.00
7748;BME280;3918;42.564;23.164;2023-05-08T14:27:11;-11650.84;;;-142.29;100.00
7748;BME280;3918;42.564;23.164;2023-05-08T14:29:38;-11650.84;;;-142.29;100.00
7748;BME280;3918;42.564;23.164;2023-05-08T14:32:07;-11650.84;;;-142.29;100.00
7748;BME280;3918;42.564;23.164;2023-05-08T14:34:35;-11650.84;;;-142.29;100.00
7748;BME280;3918;42.564;23.164;2023-05-08T14:37:02;-11650.84;;;-142.29;100.00
7748;BME280;3918;42.564;23.164;2023-05-08T14:39:29;-11650.84;;;-142.29;100.00
7748;BME280;3918;42.564;23.164;2023-05-08T14:41:56;-11650.84;;;-142.29;100.00
7748;BME280;3918;42.564;23.164;2023-05-08T14:44:23;-11650.84;;;-142.29;100.00
7748;BME280;3918;42.564;23.164;2023-05-08T14:46:50;-11650.84;;;-142.29;100.00
7748;BME280;3918;42.564;23.164;2023-05-08T14:49:19;-11650.84;;;-142.29;100.00
7748;BME280;3918;42.564;23.164;2023-05-08T14:51:46;-11650.84;;;-142.29;100.00
7748;BME280;3918;42.564;23.164;2023-05-08T14:54:13;-11650.84;;;-142.29;100.00
7748;BME280;3918;42.564;23.164;2023-05-08T14:56:39;-11650.84;;;-142.29;100.00
7748;BME280;3918;42.564;23.164;2023-05-08T14:59:06;-11650.84;;;-142.29;100.00
7748;BME280;3918;42.564;23.164;2023-05-08T15:01:33;-11650.84;;;-142.29;100.00
7748;BME280;3918;42.564;23.164;2023-05-08T15:04:00;-11650.84;;;-142.29;100.00
7748;BME280;3918;42.564;23.164;2023-05-08T15:06:29;-11650.84;;;-142.29;100.00
7748;BME280;3918;42.564;23.164;2023-05-08T15:08:56;-11650.84;;;-142.29;100.00
7748;BME280;3918;42.564;23.164;2023-05-08T15:11:23;-11650.84;;;-142.29;100.00
7748;BME280;3918;42.564;23.164;2023-05-08T15:13:50;-11650.84;;;-142.29;100.00
7748;BME280;3918;42.564;23.164;2023-05-08T15:16:17;-11650.84;;;-142.29;100.00
7748;BME280;3918;42.564;23.164;2023-05-08T15:18:44;-11650.84;;;-142.29;100.00
7748;BME280;3918;42.564;23.164;2023-05-08T15:21:11;-11650.84;;;-142.29;100.00
7748;BME280;3918;42.564;23.164;2023-05-08T15:23:39;-11650.84;;;-142.29;100.00
7748;BME280;3918;42.564;23.164;2023-05-08T15:26:05;-11650.84;;;-142.29;100.00
7748;BME280;3918;42.564;23.164;2023-05-08T15:28:33;-11650.84;;;-142.29;100.00
7748;BME280;3918;42.564;23.164;2023-05-08T15:31:02;-11650.84;;;-142.29;100.00
7748;BME280;3918;42.564;23.164;2023-05-08T15:33:30;-11650.84;;;-142.29;100.00
7748;BME280;3918;42.564;23.164;2023-05-08T15:35:57;-11650.84;;;-142.29;100.00
7748;BME280;3918;42.564;23.164;2023-05-08T15:38:24;-11650.84;;;-142.29;100.00
7748;BME280;3918;42.564;23.164;2023-05-08T15:40:52;-11650.84;;;-142.29;100.00
7748;BME280;3918;42.564;23.164;2023-05-08T15:43:19;-11650.84;;;-142.29;100.00
7748;BME280;3918;42.564;23.164;2023-05-08T15:45:46;-11650.84;;;-142.29;100.00
7748;BME280;3918;42.564;23.164;2023-05-08T15:48:13;-11650.84;;;-142.29;100.00
7748;BME280;3918;42.564;23.164;2023-05-08T15:50:40;-11650.84;;;-142.29;100.00
7748;BME280;3918;42.564;23.164;2023-05-08T15:53:08;-11650.84;;;-142.29;100.00
7748;BME280;3918;42.564;23.164;2023-05-08T15:55:34;-11650.84;;;-142.29;100.00
7748;BME280;3918;42.564;23.164;2023-05-08T15:58:02;-11650.84;;;-142.29;100.00
7748;BME280;3918;42.564;23.164;2023-05-08T16:00:29;-11650.84;;;-142.29;100.00
7748;BME280;3918;42.564;23.164;2023-05-08T16:02:56;-11650.84;;;-142.29;100.00
7748;BME280;3918;42.564;23.164;2023-05-08T16:05:27;-11650.84;;;-142.29;100.00
7748;BME280;3918;42.564;23.164;2023-05-08T16:07:54;-11650.84;;;-142.29;100.00
7748;BME280;3918;42.564;23.164;2023-05-08T16:10:21;-11650.84;;;-142.29;100.00
7748;BME280;3918;42.564;23.164;2023-05-08T16:12:49;-11650.84;;;-142.29;100.00
7748;BME280;3918;42.564;23.164;2023-05-08T16:15:17;-11650.84;;;-142.29;100.00
7748;BME280;3918;42.564;23.164;2023-05-08T16:17:44;-11650.84;;;-142.29;100.00
7748;BME280;3918;42.564;23.164;2023-05-08T16:20:11;-11650.84;;;-142.29;100.00
7748;BME280;3918;42.564;23.164;2023-05-08T16:22:40;-11650.84;;;-142.29;100.00
7748;BME280;3918;42.564;23.164;2023-05-08T16:25:08;-11650.84;;;-142.29;100.00
7748;BME280;3918;42.564;23.164;2023-05-08T16:27:35;-11650.84;;;-142.29;100.00
7748;BME280;3918;42.564;23.164;2023-05-08T16:30:02;-11650.84;;;-142.29;100.00
7748;BME280;3918;42.564;23.164;2023-05-08T16:32:31;-11650.84;;;-142.29;100.00
7748;BME280;3918;42.564;23.164;2023-05-08T16:34:58;-11650.84;;;-142.29;100.00
7748;BME280;3918;42.564;23.164;2023-05-08T16:37:25;-11650.84;;;-142.29;100.00
7748;BME280;3918;42.564;23.164;2023-05-08T16:39:53;-11650.84;;;-142.29;100.00
7748;BME280;3918;42.564;23.164;2023-05-08T16:42:20;-11650.84;;;-142.29;100.00
7748;BME280;3918;42.564;23.164;2023-05-08T16:44:47;-11650.84;;;-142.29;100.00
7748;BME280;3918;42.564;23.164;2023-05-08T16:47:13;-11650.84;;;-142.29;100.00
7748;BME280;3918;42.564;23.164;2023-05-08T16:49:42;-11650.84;;;-142.29;100.00